Aeroporto :
LOGIN :

Iscrizione | Disclaimer

   EN    FR    IT 

 










Sommario :    VFR   VFR Marginale   IFR   IFR Intensivo   IFR Molto Intensivo
Visibilità : 
Base nubi : 
>= 8 km
>= 3000ft
5 / 8 km
1000 / 3000 ft
1500m / 5 km
500 / 1000 ft
800 / 1500m
200 / 500 ft
< 800m
< 200 ft
Simboli :   Temporali  Nebbia  Neve Forte  Precipitazioni Forti  Vento > 20 kt
SIGMETs :   Varie  Temporali  Ghiacco  Turbolenza  Onda orograficha  Ceneri Vulcaniche






- Altitudine del aeroporto : 1470 ft
- Codice IATA : KLU


LOWK - Klagenfurt

ULTIMO METAR :
  • 231020Z VRB01KT 9999 FEW090 BKN100 04/M02 Q1024 NOSIG

METARs OBSOLETI :
  • 230950Z VRB01KT 9999 FEW090 BKN110 03/M03 Q1024 NOSIG
  • 230920Z 30003KT CAVOK 03/M03 Q1025 NOSIG
  • 230850Z 27003KT 190V310 CAVOK 02/M02 Q1025 NOSIG
  • 230820Z VRB02KT CAVOK 01/M03 Q1025 NOSIG
  • 230750Z VRB01KT CAVOK 01/M03 Q1025 NOSIG

TAF TAF LOWK
Valido dal 23 a 06 ore il 24 a 06 ore UTC


230515Z 2306/2406 27005KT 9999 SCT100 TX14/2315Z TNM01/2306Z
TEMPO 2312/2317 23010KT CAVOK
TEMPO 2400/2406 35007KT BKN060



MetMap, La meteo Aeronautica in un colpo d'occhio ! - Copyright ORBIFLY Dicembre 2007 - Disclaimer

ORBIFLY MET'MAP TEAM :

Programmazione e sviluppo : Alexandra Zaïnal
Concezione : Baudouin d'Aumeries
Aiuto per la programmazione : Marc-Olivier Méhu
Supporto tecnico e logistico : Manuel Goepfert
Aiuto per la traduzione : Arnaldo La Scala

Contatto : metmap@orbifly.com




FONTI E CREDITI :

   NOAA